Time;durP1;ratioP1;P1;durP2;ratioP2;P2;SDS_P1;SDS_P2;PMS_P1;PMS_P2;Temp;Humidity;BMP_temperature;BMP_pressure;BME280_temperature;BME280_humidity;BME280_pressure;Samples;Min_cycle;Max_cycle;Signal;HPM_P1;HPM_P2
2022/11/18 00:01:35;;;;;;;0.00;0.00;;;;;;;6.51;100.00;98210.78;6221389;23;20012;-77
2022/11/18 00:04:11;;;;;;;0.00;0.00;;;;;;;6.52;100.00;98206.19;6222543;23;20050;-75
2022/11/18 00:06:37;;;;;;;0.00;0.00;;;;;;;6.50;100.00;98217.34;6223076;23;20011;-75
2022/11/18 00:09:05;;;;;;;0.00;0.00;;;;;;;6.53;100.00;98215.94;6219705;23;19992;-73
2022/11/18 00:14:19;;;;;;;0.00;0.00;;;;;;;6.53;100.00;98232.25;6225408;23;20030;-75
2022/11/18 00:17:06;;;;;;;0.20;0.20;;;;;;;6.52;100.00;98230.63;6246660;23;20014;-75
2022/11/18 00:19:36;;;;;;;0.00;0.00;;;;;;;6.51;100.00;98250.72;6220930;23;20004;-75
2022/11/18 00:22:03;;;;;;;0.00;0.00;;;;;;;6.41;100.00;98240.78;6224990;23;20012;-74
2022/11/18 00:24:29;;;;;;;0.00;0.00;;;;;;;6.43;100.00;98236.69;6246476;23;20015;-76
2022/11/18 00:27:00;;;;;;;0.00;0.00;;;;;;;6.36;100.00;98232.72;6196388;23;20004;-75
2022/11/18 00:29:30;;;;;;;0.00;0.00;;;;;;;6.43;100.00;98255.69;6246544;23;20027;-75
2022/11/18 00:31:56;;;;;;;0.00;0.00;;;;;;;6.38;100.00;98258.50;6249064;23;20000;-74
2022/11/18 00:34:23;;;;;;;0.00;0.00;;;;;;;6.32;100.00;98243.34;6221042;23;20058;-75
2022/11/18 00:36:48;;;;;;;0.10;0.10;;;;;;;6.30;100.00;98245.56;6220988;23;20011;-74
2022/11/18 00:39:24;;;;;;;0.17;0.17;;;;;;;6.25;100.00;98245.59;6198065;23;20012;-74
2022/11/18 00:44:39;;;;;;;0.00;0.00;;;;;;;6.25;100.00;98257.28;6225811;23;20019;-75
2022/11/18 00:47:05;;;;;;;0.00;0.00;;;;;;;6.21;100.00;98260.88;6220418;23;20004;-74
2022/11/18 00:49:33;;;;;;;0.00;0.00;;;;;;;6.20;100.00;98267.41;6222466;23;20004;-74
2022/11/18 00:52:01;;;;;;;0.00;0.00;;;;;;;6.14;100.00;98265.84;6218128;23;20019;-75
2022/11/18 00:54:26;;;;;;;0.00;0.00;;;;;;;6.13;100.00;98275.09;6220380;23;20003;-74
2022/11/18 00:56:53;;;;;;;0.00;0.00;;;;;;;6.17;100.00;98284.28;6218748;23;20027;-75
2022/11/18 00:59:20;;;;;;;0.00;0.00;;;;;;;6.09;100.00;98280.28;6219793;23;20008;-75
2022/11/18 01:01:47;;;;;;;0.10;0.10;;;;;;;6.06;100.00;98284.38;6168182;23;20401;-74
2022/11/18 01:04:13;;;;;;;0.00;0.00;;;;;;;6.07;100.00;98290.59;6220772;23;20649;-75
2022/11/18 01:06:38;;;;;;;0.00;0.00;;;;;;;5.98;100.00;98279.59;6223855;23;20008;-73
2022/11/18 01:09:04;;;;;;;0.00;0.00;;;;;;;6.04;100.00;98283.84;6218057;23;20016;-73
2022/11/18 01:14:13;;;;;;;0.00;0.00;;;;;;;5.87;100.00;98276.16;6223943;23;20010;-74
2022/11/18 01:16:39;;;;;;;0.00;0.00;;;;;;;5.93;100.00;98290.47;6200616;23;20040;-74
2022/11/18 01:19:12;;;;;;;0.00;0.00;;;;;;;5.86;100.00;98284.56;6246451;23;20012;-76
2022/11/18 01:21:37;;;;;;;0.00;0.00;;;;;;;5.87;100.00;98292.44;6224622;23;20058;-74
2022/11/18 01:24:05;;;;;;;0.00;0.00;;;;;;;5.84;100.00;98294.88;6196066;23;20012;-75
2022/11/18 01:26:33;;;;;;;0.00;0.00;;;;;;;5.77;100.00;98295.25;6176623;23;20087;-76
2022/11/18 01:28:58;;;;;;;0.00;0.00;;;;;;;5.77;100.00;98292.53;6250830;23;20015;-75
2022/11/18 01:31:26;;;;;;;0.00;0.00;;;;;;;5.77;100.00;98304.19;6199707;23;20071;-76
2022/11/18 01:33:52;;;;;;;0.00;0.00;;;;;;;5.76;100.00;98307.97;6227029;23;20000;-76
2022/11/18 01:36:19;;;;;;;0.00;0.00;;;;;;;5.69;100.00;98296.66;6220281;23;20030;-75
2022/11/18 01:38:48;;;;;;;0.00;0.00;;;;;;;5.74;100.00;98320.22;6223681;23;20021;-75
2022/11/18 01:41:31;;;;;;;0.00;0.00;;;;;;;5.68;100.00;98311.31;6221660;23;20012;-75
2022/11/18 01:44:00;;;;;;;0.00;0.00;;;;;;;5.68;100.00;98315.94;6229860;23;19996;-76
2022/11/18 01:46:28;;;;;;;0.00;0.00;;;;;;;5.67;100.00;98320.53;6218762;23;20015;-75
2022/11/18 01:49:07;;;;;;;0.00;0.00;;;;;;;5.63;100.00;98319.50;6224245;23;20011;-76
2022/11/18 01:51:40;;;;;;;0.00;0.00;;;;;;;5.50;100.00;98309.31;6220670;23;20035;-75
2022/11/18 01:54:13;;;;;;;0.00;0.00;;;;;;;5.46;100.00;98325.34;6252996;23;19996;-76
2022/11/18 01:56:46;;;;;;;0.00;0.00;;;;;;;5.51;100.00;98327.19;6222358;23;20003;-76
2022/11/18 01:59:17;;;;;;;0.00;0.00;;;;;;;5.44;100.00;98326.72;6224499;23;20087;-74
2022/11/18 02:01:46;;;;;;;0.00;0.00;;;;;;;5.47;100.00;98337.00;6221904;23;20442;-74
2022/11/18 02:04:12;;;;;;;0.00;0.00;;;;;;;5.53;100.00;98352.13;6223843;23;20015;-74
2022/11/18 02:06:45;;;;;;;0.00;0.00;;;;;;;5.45;100.00;98339.16;6222712;23;20387;-74
2022/11/18 02:09:13;;;;;;;0.00;0.00;;;;;;;5.42;100.00;98352.19;6218295;23;19994;-76
2022/11/18 02:11:53;;;;;;;0.00;0.00;;;;;;;5.40;100.00;98359.00;6250064;23;20038;-74
2022/11/18 02:14:30;;;;;;;0.00;0.00;;;;;;;5.36;100.00;98352.50;6248245;23;20015;-75
2022/11/18 02:17:16;;;;;;;0.00;0.00;;;;;;;5.37;100.00;98362.25;6224062;23;20004;-75
2022/11/18 02:19:47;;;;;;;0.00;0.00;;;;;;;5.35;100.00;98362.56;6251564;23;20074;-74
2022/11/18 02:22:33;;;;;;;0.00;0.00;;;;;;;5.34;100.00;98371.75;6219761;23;20004;-76
2022/11/18 02:25:25;;;;;;;0.00;0.00;;;;;;;5.36;100.00;98377.72;6225871;23;20008;-76
2022/11/18 02:28:12;;;;;;;0.00;0.00;;;;;;;5.36;100.00;98375.03;6219070;23;20054;-77
2022/11/18 02:31:00;;;;;;;0.00;0.00;;;;;;;5.29;100.00;98379.16;6222846;23;19998;-75
2022/11/18 02:33:58;;;;;;;0.00;0.00;;;;;;;5.29;100.00;98388.06;6205407;23;20497;-75
2022/11/18 02:36:39;;;;;;;0.00;0.00;;;;;;;5.29;100.00;98385.38;6221173;23;20419;-77
2022/11/18 02:39:16;;;;;;;0.00;0.00;;;;;;;5.25;100.00;98385.09;6251948;23;20000;-76
2022/11/18 02:41:45;;;;;;;0.00;0.00;;;;;;;5.24;100.00;98388.09;6250369;22;20089;-76
2022/11/18 02:44:17;;;;;;;0.00;0.00;;;;;;;5.21;100.00;98383.25;6219731;23;20008;-74
2022/11/18 02:46:46;;;;;;;0.00;0.00;;;;;;;5.28;100.00;98405.41;6219190;23;20498;-75
2022/11/18 02:49:23;;;;;;;0.00;0.00;;;;;;;5.20;100.00;98397.91;6223568;23;20004;-76
2022/11/18 02:51:50;;;;;;;0.00;0.00;;;;;;;5.21;100.00;98399.50;6221939;23;20095;-74
2022/11/18 02:54:21;;;;;;;0.00;0.00;;;;;;;5.21;100.00;98415.75;6251740;23;20004;-75
2022/11/18 02:56:50;;;;;;;0.00;0.00;;;;;;;5.10;100.00;98409.59;6222290;23;20461;-75
2022/11/18 02:59:19;;;;;;;0.00;0.00;;;;;;;5.08;100.00;98400.91;6248680;23;20035;-76
2022/11/18 03:01:45;;;;;;;0.00;0.00;;;;;;;5.13;100.00;98408.22;6219915;23;20008;-75
2022/11/18 03:04:15;;;;;;;0.00;0.00;;;;;;;5.11;100.00;98404.97;6248835;23;20068;-76
2022/11/18 03:06:44;;;;;;;0.00;0.00;;;;;;;5.14;100.00;98426.91;6221466;23;19989;-75
2022/11/18 03:09:28;;;;;;;0.00;0.00;;;;;;;5.14;100.00;98415.25;6222669;23;20000;-75
2022/11/18 03:11:54;;;;;;;;;;;;;;;5.24;100.00;98429.56;6224294;23;20004;-75
2022/11/18 03:14:47;;;;;;;0.00;0.00;;;;;;;5.25;100.00;98435.78;6218190;23;19916;-74
2022/11/18 03:17:21;;;;;;;0.03;0.03;;;;;;;5.23;100.00;98429.84;6220445;23;20012;-76
2022/11/18 03:20:21;;;;;;;0.00;0.00;;;;;;;5.25;100.00;98433.09;6223832;23;20004;-74
2022/11/18 03:23:30;;;;;;;0.00;0.00;;;;;;;5.24;100.00;98434.16;6219579;23;20016;-75
2022/11/18 03:26:10;;;;;;;0.00;0.00;;;;;;;5.18;100.00;98430.69;6243716;23;20035;-74
2022/11/18 03:29:10;;;;;;;0.00;0.00;;;;;;;5.14;100.00;98434.22;6223086;23;20038;-74
2022/11/18 03:32:04;;;;;;;0.00;0.00;;;;;;;5.20;100.00;98447.47;6223446;23;20081;-75
2022/11/18 03:34:46;;;;;;;0.00;0.00;;;;;;;5.15;100.00;98457.53;6234153;23;20027;-76
2022/11/18 03:37:15;;;;;;;0.00;0.00;;;;;;;4.99;100.00;98441.31;6247412;22;20000;-75
2022/11/18 03:39:56;;;;;;;0.00;0.00;;;;;;;5.06;100.00;98447.25;6219371;23;20052;-75
2022/11/18 03:42:45;;;;;;;0.00;0.00;;;;;;;5.06;100.00;98447.25;6221314;23;20023;-76
2022/11/18 03:45:18;;;;;;;0.00;0.00;;;;;;;5.14;100.00;98458.59;6221946;23;20008;-75
2022/11/18 03:47:57;;;;;;;0.00;0.00;;;;;;;5.10;100.00;98463.78;6216077;23;20071;-76
2022/11/18 03:50:28;;;;;;;0.00;0.00;;;;;;;5.04;100.00;98460.28;6243977;23;20000;-76
2022/11/18 03:53:02;;;;;;;0.00;0.00;;;;;;;5.08;100.00;98476.78;6220293;23;20055;-74
2022/11/18 03:55:35;;;;;;;0.10;0.10;;;;;;;5.03;100.00;98474.91;6174815;23;20099;-75
2022/11/18 03:58:14;;;;;;;0.00;0.00;;;;;;;4.95;100.00;98472.78;6243518;22;19995;-75
2022/11/18 04:00:51;;;;;;;0.00;0.00;;;;;;;4.91;100.00;98477.13;6220930;23;20067;-75
2022/11/18 04:03:17;;;;;;;0.00;0.00;;;;;;;4.96;100.00;98490.63;6218114;23;20000;-76
2022/11/18 04:05:43;;;;;;;0.00;0.00;;;;;;;4.93;100.00;98485.78;6218746;23;20036;-74
2022/11/18 04:08:15;;;;;;;0.00;0.00;;;;;;;4.88;100.00;98483.09;6219731;23;20026;-74
2022/11/18 04:10:54;;;;;;;0.00;0.00;;;;;;;4.81;100.00;98488.00;6213130;23;20008;-75
2022/11/18 04:13:32;;;;;;;0.00;0.00;;;;;;;4.80;100.00;98498.00;6220174;23;20082;-75
2022/11/18 04:15:58;;;;;;;0.00;0.00;;;;;;;4.84;100.00;98498.28;6221769;23;20008;-75
2022/11/18 04:19:04;;;;;;;;;;;;;;;;;;;;;
2022/11/18 04:21:18;;;;;;;0.00;0.00;;;;;;;4.83;100.00;98491.22;6208957;23;20052;-75
2022/11/18 04:23:44;;;;;;;0.00;0.00;;;;;;;4.85;100.00;98483.66;6192634;23;20485;-75
2022/11/18 04:26:12;;;;;;;0.00;0.00;;;;;;;4.88;100.00;98488.53;6171098;22;20014;-75
2022/11/18 04:28:37;;;;;;;1.20;1.10;;;;;;;4.92;100.00;98495.00;6194493;23;20153;-75
2022/11/18 04:31:03;;;;;;;0.00;0.00;;;;;;;4.90;100.00;98486.34;6170283;23;20016;-74
2022/11/18 04:33:34;;;;;;;0.00;0.00;;;;;;;4.92;100.00;98505.84;6221084;23;20326;-76
2022/11/18 04:36:06;;;;;;;0.10;0.10;;;;;;;4.84;100.00;98501.00;6218360;23;20015;-75
2022/11/18 04:42:33;;;;;;;;;;;;;;;;;;;;;
2022/11/18 04:45:10;;;;;;;0.00;0.00;;;;;;;4.87;100.00;98535.66;6226605;23;20506;-75
2022/11/18 04:47:38;;;;;;;0.00;0.00;;;;;;;4.82;100.00;98522.09;6212868;23;20012;-75
2022/11/18 04:50:07;;;;;;;0.15;0.15;;;;;;;4.84;100.00;98522.66;6246267;23;19996;-76
2022/11/18 04:52:33;;;;;;;0.00;0.00;;;;;;;4.87;100.00;98524.81;6217937;23;20422;-75
2022/11/18 04:55:21;;;;;;;0.00;0.00;;;;;;;4.93;100.00;98545.38;6246259;23;20035;-75
2022/11/18 04:57:49;;;;;;;0.00;0.00;;;;;;;4.80;100.00;98525.09;6217912;23;20416;-75
2022/11/18 05:00:28;;;;;;;;;;;;;;;;;;;;;
2022/11/18 05:02:53;;;;;;;0.00;0.00;;;;;;;4.83;100.00;98558.94;6245535;23;20414;-76
2022/11/18 05:05:51;;;;;;;0.00;0.00;;;;;;;4.88;100.00;98559.75;6171326;23;20023;-76
2022/11/18 05:08:42;;;;;;;0.00;0.00;;;;;;;4.85;100.00;98554.06;6218823;23;20004;-75
2022/11/18 05:14:53;;;;;;;0.00;0.00;;;;;;;4.74;100.00;98552.47;6152243;23;20018;-74
2022/11/18 05:17:21;;;;;;;0.10;0.10;;;;;;;4.77;100.00;98562.75;6193181;23;20023;-74
2022/11/18 05:19:48;;;;;;;0.00;0.00;;;;;;;4.79;100.00;98566.81;6219717;23;20996;-75
2022/11/18 05:22:16;;;;;;;0.00;0.00;;;;;;;4.79;100.00;98565.97;6220814;23;20016;-74
2022/11/18 05:24:42;;;;;;;0.00;0.00;;;;;;;4.79;100.00;98566.81;6246649;23;20036;-75
2022/11/18 05:27:07;;;;;;;0.00;0.00;;;;;;;4.81;100.00;98580.06;6197296;23;20054;-75
2022/11/18 05:29:47;;;;;;;0.00;0.00;;;;;;;4.76;100.00;98580.06;6219980;23;20004;-75
2022/11/18 05:32:13;;;;;;;0.00;0.00;;;;;;;4.72;100.00;98571.69;6221768;23;20019;-74
2022/11/18 05:34:40;;;;;;;0.00;0.00;;;;;;;4.72;100.00;98583.31;6173025;23;20004;-75
2022/11/18 05:37:06;;;;;;;0.00;0.00;;;;;;;4.74;100.00;98585.75;6219825;23;20000;-76
2022/11/18 05:39:32;;;;;;;0.10;0.10;;;;;;;4.70;100.00;98581.97;6221808;23;20018;-76
2022/11/18 05:44:45;;;;;;;0.00;0.00;;;;;;;4.71;100.00;98581.69;6225372;23;20081;-74
2022/11/18 05:47:10;;;;;;;0.00;0.00;;;;;;;4.75;100.00;98589.31;6247964;23;20028;-75
2022/11/18 05:49:36;;;;;;;0.00;0.00;;;;;;;4.72;100.00;98582.53;6220200;23;20015;-75
2022/11/18 05:52:09;;;;;;;0.00;0.00;;;;;;;4.70;100.00;98593.63;6217995;23;20019;-75
2022/11/18 05:54:41;;;;;;;0.00;0.00;;;;;;;4.64;100.00;98596.59;6220469;23;19992;-75
2022/11/18 05:57:06;;;;;;;0.00;0.00;;;;;;;4.60;100.00;98590.94;6248195;23;20346;-75
2022/11/18 05:59:34;;;;;;;0.10;0.10;;;;;;;4.55;100.00;98599.03;6169876;23;20015;-75
2022/11/18 06:02:10;;;;;;;0.00;0.00;;;;;;;4.55;100.00;98599.03;6197470;23;20075;-76
2022/11/18 06:04:52;;;;;;;0.00;0.00;;;;;;;4.52;100.00;98610.41;6221897;23;20066;-74
2022/11/18 06:07:20;;;;;;;0.00;0.00;;;;;;;4.56;100.00;98611.50;6220799;23;20115;-75
2022/11/18 06:09:49;;;;;;;0.00;0.00;;;;;;;4.57;100.00;98615.84;6219235;23;20008;-75
2022/11/18 06:12:18;;;;;;;0.00;0.00;;;;;;;4.51;100.00;98603.38;6252058;23;20319;-75
2022/11/18 06:14:59;;;;;;;0.00;0.00;;;;;;;4.53;100.00;98615.56;6219401;23;20154;-74
2022/11/18 06:17:30;;;;;;;0.00;0.00;;;;;;;4.50;100.00;98618.81;6224690;23;20007;-74
2022/11/18 06:20:15;;;;;;;0.00;0.00;;;;;;;4.40;100.00;98602.56;6223052;23;20004;-75
2022/11/18 06:22:48;;;;;;;0.00;0.00;;;;;;;4.54;100.00;98638.84;6220973;23;20003;-76
2022/11/18 06:25:14;;;;;;;0.00;0.00;;;;;;;4.46;100.00;98627.75;6219056;23;20055;-75
2022/11/18 06:27:41;;;;;;;0.00;0.00;;;;;;;4.49;100.00;98638.03;6197602;23;20419;-76
2022/11/18 06:30:09;;;;;;;0.00;0.00;;;;;;;4.46;100.00;98633.16;6219957;23;20062;-76
2022/11/18 06:32:34;;;;;;;0.10;0.10;;;;;;;4.48;100.00;98641.81;6249172;23;20027;-75
2022/11/18 06:35:00;;;;;;;0.00;0.00;;;;;;;4.39;100.00;98643.44;6197408;23;20082;-75
2022/11/18 06:37:25;;;;;;;0.00;0.00;;;;;;;4.40;100.00;98655.91;6220342;23;20064;-74
2022/11/18 06:39:54;;;;;;;0.00;0.00;;;;;;;4.37;100.00;98654.53;6223836;23;20007;-75
2022/11/18 06:45:24;;;;;;;0.00;0.00;;;;;;;4.32;100.00;98665.34;6250367;23;20142;-75
2022/11/18 06:47:49;;;;;;;0.00;0.00;;;;;;;4.29;100.00;98664.00;6222253;23;20008;-74
2022/11/18 06:50:28;;;;;;;;;;;;;;;;;;;;;
2022/11/18 06:52:53;;;;;;;0.00;0.00;;;;;;;4.30;100.00;98673.72;6201934;23;20031;-76
2022/11/18 06:55:19;;;;;;;0.00;0.00;;;;;;;4.34;100.00;98687.53;6200841;23;20007;-75
2022/11/18 06:57:47;;;;;;;0.00;0.00;;;;;;;4.28;100.00;98686.72;6218527;23;20004;-75
2022/11/18 07:00:13;;;;;;;0.00;0.00;;;;;;;4.38;100.00;98696.75;6220768;23;20094;-74
2022/11/18 07:02:41;;;;;;;0.00;0.00;;;;;;;4.40;100.00;98710.03;6218356;23;20012;-74
2022/11/18 07:05:15;;;;;;;0.00;0.00;;;;;;;4.37;100.00;98709.47;6223043;23;20066;-74
2022/11/18 07:07:48;;;;;;;0.00;0.00;;;;;;;4.36;100.00;98713.22;6218163;23;20000;-74
2022/11/18 07:10:14;;;;;;;0.00;0.00;;;;;;;4.44;100.00;98732.75;6221896;23;20087;-77
2022/11/18 07:12:39;;;;;;;0.00;0.00;;;;;;;4.48;100.00;98733.84;6220529;23;20074;-77
2022/11/18 07:15:12;;;;;;;0.00;0.00;;;;;;;4.39;100.00;98724.63;6174905;23;20008;-78
2022/11/18 07:17:57;;;;;;;0.00;0.00;;;;;;;4.44;100.00;98735.44;6197634;23;20390;-79
2022/11/18 07:20:22;;;;;;;0.00;0.00;;;;;;;4.39;100.00;98740.88;6223105;23;20087;-78
2022/11/18 07:23:02;;;;;;;;;;;;;;;;;;;;;
2022/11/18 07:25:29;;;;;;;0.00;0.00;;;;;;;4.40;100.00;98742.50;6246989;23;20040;-78
2022/11/18 07:28:05;;;;;;;0.00;0.00;;;;;;;4.42;100.00;98756.56;6250171;23;19996;-78
2022/11/18 07:31:04;;;;;;;;;;;;;;;;;;;;;
2022/11/18 07:33:33;;;;;;;0.00;0.00;;;;;;;4.39;100.00;98752.50;6250299;23;20027;-77
2022/11/18 07:36:32;;;;;;;;;;;;;;;;;;;;;
2022/11/18 07:39:00;;;;;;;;;;;;;;;;;;;;;
2022/11/18 07:41:52;;;;;;;0.10;0.10;;;;;;;4.52;100.00;98791.78;6254104;22;20036;-81
2022/11/18 07:44:38;;;;;;;0.00;0.00;;;;;;;4.55;100.00;98793.97;6252837;23;20016;-81
2022/11/18 07:47:03;;;;;;;0.00;0.00;;;;;;;4.63;100.00;98807.00;6225971;23;20008;-81
2022/11/18 07:51:09;;;;;;;0.00;0.00;;;;;;;4.51;100.00;98793.69;6225034;23;20008;-79
2022/11/18 07:53:16;;;;;;;0.00;0.00;;;;;;;4.61;100.00;98803.72;6136834;23;20084;-80
2022/11/18 07:56:26;;;;;;;0.00;0.00;;;;;;;4.58;100.00;98808.88;6223860;23;20061;-80
2022/11/18 08:02:10;;;;;;;0.00;0.00;;;;;;;4.72;100.00;98821.63;6185176;23;20103;-77
2022/11/18 08:04:38;;;;;;;0.03;0.03;;;;;;;4.76;100.00;98826.50;5990157;23;20086;-78
2022/11/18 08:07:28;;;;;;;;;;;;;;;;;;;;;
2022/11/18 08:09:57;;;;;;;0.00;0.00;;;;;;;4.82;100.00;98831.69;6225627;23;20036;-78
2022/11/18 08:12:25;;;;;;;0.00;0.00;;;;;;;4.87;100.00;98828.16;6252836;23;20023;-79
2022/11/18 08:14:53;;;;;;;0.00;0.00;;;;;;;4.96;100.00;98837.38;6248367;23;20000;-79
2022/11/18 08:17:24;;;;;;;0.00;0.00;;;;;;;5.00;100.00;98838.47;6225984;23;20083;-79
2022/11/18 08:20:12;;;;;;;0.00;0.00;;;;;;;4.99;100.00;98836.03;6224133;23;19988;-80
2022/11/18 08:22:38;;;;;;;0.00;0.00;;;;;;;5.10;100.00;98848.53;6253708;23;20373;-79
2022/11/18 08:25:10;;;;;;;0.00;0.00;;;;;;;5.23;100.00;98868.88;6225253;23;20008;-79
2022/11/18 08:27:35;;;;;;;0.00;0.00;;;;;;;5.31;100.00;98862.91;6227166;23;20008;-80
2022/11/18 08:30:01;;;;;;;0.00;0.00;;;;;;;5.36;100.00;98873.78;6225542;23;20004;-79
2022/11/18 08:32:26;;;;;;;0.00;0.00;;;;;;;5.40;100.00;98869.44;6200711;23;20004;-79
2022/11/18 08:34:57;;;;;;;0.00;0.00;;;;;;;5.49;100.00;98872.44;6224289;23;19984;-78
2022/11/18 08:37:42;;;;;;;;;;;;;;;;;;;;;
2022/11/18 08:40:10;;;;;;;0.00;0.00;;;;;;;5.65;100.00;98869.72;6247748;23;20032;-79
2022/11/18 08:43:28;;;;;;;0.00;0.00;;;;;;;5.85;100.00;98885.97;6223521;22;20028;-80
2022/11/18 08:46:27;;;;;;;;;;;;;;;;;;;;;
2022/11/18 08:48:52;;;;;;;0.00;0.00;;;;;;;6.01;100.00;98889.53;6127555;23;20077;-79
2022/11/18 08:52:09;;;;;;;;;;;;;;;;;;;;;
2022/11/18 08:55:26;;;;;;;;;;;;;;;;;;;;;
2022/11/18 08:58:27;;;;;;;;;;;;;;;;;;;;;
2022/11/18 09:01:14;;;;;;;;;;;;;;;;;;;;;
2022/11/18 09:04:03;;;;;;;;;;;;;;;;;;;;;
2022/11/18 09:06:33;;;;;;;0.00;0.00;;;;;;;14.88;100.00;98918.44;6225665;23;20020;-79
2022/11/18 09:12:20;;;;;;;0.00;0.00;;;;;;;17.89;100.00;98921.69;6246176;23;20023;-79
2022/11/18 09:14:54;;;;;;;0.00;0.00;;;;;;;18.84;99.87;98937.66;6232921;23;19997;-80
2022/11/18 09:17:25;;;;;;;3.50;2.08;;;;;;;19.29;100.00;98943.06;6231417;23;20011;-81
2022/11/18 09:19:50;;;;;;;0.00;0.00;;;;;;;20.14;98.76;98954.44;6237713;23;20015;-77
2022/11/18 09:25:22;;;;;;;0.00;0.00;;;;;;;21.24;93.99;98956.75;6147888;23;19999;-76
2022/11/18 09:27:51;;;;;;;0.00;0.00;;;;;;;21.49;87.24;98961.09;6213413;23;20012;-79
2022/11/18 09:30:19;;;;;;;0.00;0.00;;;;;;;21.49;90.52;98956.34;6191767;23;20023;-78
2022/11/18 09:33:06;;;;;;;0.08;0.08;;;;;;;21.94;92.16;98964.91;6196739;23;20090;-78
2022/11/18 09:36:00;;;;;;;0.00;0.00;;;;;;;22.64;87.46;98968.09;6217062;23;20068;-79
2022/11/18 09:38:41;;;;;;;;;;;;;;;;;;;;;
2022/11/18 09:41:57;;;;;;;0.00;0.00;;;;;;;23.16;79.40;98982.94;6249267;22;20087;-78
2022/11/18 09:44:47;;;;;;;0.00;0.00;;;;;;;22.97;83.17;98983.16;6219495;23;20008;-79
2022/11/18 09:47:47;;;;;;;;;;;;;;;;;;;;;
2022/11/18 09:50:23;;;;;;;0.00;0.00;;;;;;;23.39;88.83;98978.31;6223109;23;20016;-78
2022/11/18 09:56:28;;;;;;;0.00;0.00;;;;;;;24.68;81.84;99006.06;6231279;23;20000;-79
2022/11/18 09:58:56;;;;;;;0.00;0.00;;;;;;;24.46;85.41;99000.41;6198415;23;20029;-76
2022/11/18 10:02:25;;;;;;;0.00;0.00;;;;;;;24.99;81.62;99001.72;6196821;23;20529;-77
2022/11/18 10:06:04;;;;;;;;;;;;;;;;;;;;;
2022/11/18 10:16:11;;;;;;;0.00;0.00;;;;;;;24.80;83.69;99018.88;6013003;23;20004;-78
2022/11/18 10:19:17;;;;;;;0.00;0.00;;;;;;;25.94;76.08;99018.00;6014224;23;20012;-80
2022/11/18 10:22:40;;;;;;;0.00;0.00;;;;;;;26.11;76.91;99021.19;6010846;23;20020;-78
2022/11/18 10:33:02;;;;;;;0.00;0.00;;;;;;;25.25;69.12;99034.06;5917448;24;20028;-78
2022/11/18 10:39:49;;;;;;;0.00;0.00;;;;;;;24.72;68.65;99037.59;5876617;24;20024;-78
2022/11/18 11:06:54;;;;;;;0.00;0.00;;;;;;;21.03;95.46;99068.41;5929805;24;20092;-78
2022/11/18 11:10:01;;;;;;;;;;;;;;;;;;;;;
2022/11/18 11:19:17;;;;;;;0.00;0.00;;;;;;;16.89;96.56;99066.59;6030185;23;20012;-79
2022/11/18 11:22:46;;;;;;;;;;;;;;;;;;;;;
2022/11/18 11:25:15;;;;;;;0.00;0.00;;;;;;;15.64;100.00;99054.47;6188440;23;20446;-75
2022/11/18 11:28:16;;;;;;;0.00;0.00;;;;;;;14.93;100.00;99083.41;6194274;23;20316;-76
2022/11/18 11:31:31;;;;;;;0.00;0.00;;;;;;;13.91;97.87;99069.03;5388344;23;20636;-75
2022/11/18 11:34:25;;;;;;;0.40;0.40;;;;;;;13.12;100.00;99092.69;5298458;23;20565;-75
2022/11/18 11:37:37;;;;;;;0.00;0.00;;;;;;;12.42;98.28;99070.31;5914565;23;20012;-76
2022/11/18 11:40:53;;;;;;;;;;;;;;;;;;;;;
2022/11/18 11:44:11;;;;;;;0.00;0.00;;;;;;;15.25;99.87;99053.69;6221468;23;20024;-78
2022/11/18 11:47:55;;;;;;;;;;;;;;;;;;;;;
2022/11/18 11:50:14;;;;;;;0.00;0.00;;;;;;;13.50;94.97;99093.03;6197961;23;20027;-78
2022/11/18 11:53:49;;;;;;;0.00;0.00;;;;;;;12.35;97.24;99090.75;6208033;23;19987;-78
2022/11/18 12:00:14;;;;;;;0.00;0.00;;;;;;;16.74;100.00;99089.28;6187586;23;20470;-76
2022/11/18 12:03:09;;;;;;;51.25;2.38;;;;;;;20.75;86.51;99102.81;6182308;23;20773;-76
2022/11/18 12:05:41;;;;;;;0.15;0.15;;;;;;;23.47;66.27;99109.06;6221843;23;20007;-76
2022/11/18 12:08:15;;;;;;;0.00;0.00;;;;;;;23.21;65.25;99114.81;6199027;23;20337;-76
2022/11/18 12:10:47;;;;;;;0.00;0.00;;;;;;;19.92;75.55;99114.09;6222120;23;20008;-75
2022/11/18 12:13:24;;;;;;;0.00;0.00;;;;;;;18.60;74.95;99113.06;6222774;23;20007;-75
2022/11/18 12:16:01;;;;;;;0.00;0.00;;;;;;;16.42;77.99;99124.81;6223469;23;20007;-76
2022/11/18 12:18:45;;;;;;;0.00;0.00;;;;;;;15.53;80.89;99109.13;6221257;23;20007;-78
2022/11/18 12:21:45;;;;;;;0.00;0.00;;;;;;;17.06;90.27;99107.00;6222039;23;20027;-77
2022/11/18 12:24:31;;;;;;;0.00;0.00;;;;;;;22.78;88.91;99124.28;6222844;23;20000;-77
2022/11/18 12:27:19;;;;;;;0.00;0.00;;;;;;;22.24;77.46;99114.41;6223148;23;20062;-76
2022/11/18 12:29:47;;;;;;;0.00;0.00;;;;;;;22.60;82.42;99126.06;6222932;23;20000;-79
2022/11/18 12:32:41;;;;;;;0.00;0.00;;;;;;;25.27;72.27;99132.38;6222759;23;20004;-77
2022/11/18 12:35:12;;;;;;;0.00;0.00;;;;;;;24.33;63.90;99124.84;6248526;23;20484;-77
2022/11/18 12:37:50;;;;;;;0.00;0.00;;;;;;;24.02;69.17;99127.03;6222749;23;20008;-77
2022/11/18 12:40:40;;;;;;;0.00;0.00;;;;;;;20.88;75.82;99127.63;6250323;23;20052;-78
2022/11/18 12:46:09;;;;;;;0.00;0.00;;;;;;;25.08;78.05;99141.13;6249042;23;20066;-77
2022/11/18 12:48:39;;;;;;;0.00;0.00;;;;;;;27.42;70.08;99151.91;6192541;23;20024;-75
2022/11/18 12:51:14;;;;;;;0.00;0.00;;;;;;;28.81;65.53;99153.84;6219198;23;20027;-74
2022/11/18 12:53:51;;;;;;;0.00;0.00;;;;;;;29.06;61.96;99142.25;6219344;23;20004;-76
2022/11/18 12:56:16;;;;;;;0.00;0.00;;;;;;;30.08;64.40;99152.75;6191488;23;20005;-78
2022/11/18 12:58:46;;;;;;;0.00;0.00;;;;;;;30.38;60.51;99151.78;6194020;23;20005;-77
2022/11/18 13:01:15;;;;;;;0.00;0.00;;;;;;;27.92;58.86;99150.75;6218342;23;20049;-74
2022/11/18 13:03:41;;;;;;;0.00;0.00;;;;;;;26.76;57.65;99158.28;6192523;23;20016;-76
2022/11/18 13:06:24;;;;;;;0.00;0.00;;;;;;;23.13;65.51;99162.16;6193325;23;20320;-77
2022/11/18 13:08:56;;;;;;;0.00;0.00;;;;;;;20.09;83.90;99150.94;6195305;23;20428;-76
2022/11/18 13:24:43;;;;;;;1.45;1.33;;;;;;;14.11;94.40;99167.38;6156075;23;20372;-76
2022/11/18 13:27:24;;;;;;;0.00;0.00;;;;;;;13.90;95.78;99150.69;6194616;23;20032;-75
2022/11/18 13:30:03;;;;;;;0.00;0.00;;;;;;;13.91;98.01;99156.97;6222500;23;20032;-76
2022/11/18 13:32:29;;;;;;;0.00;0.00;;;;;;;14.06;94.25;99163.97;6205619;23;20008;-75
2022/11/18 13:35:04;;;;;;;0.00;0.00;;;;;;;15.00;94.31;99171.81;6166736;23;20105;-75
2022/11/18 13:37:33;;;;;;;0.00;0.00;;;;;;;17.22;94.21;99180.94;6220777;23;20345;-76
2022/11/18 13:40:15;;;;;;;0.00;0.00;;;;;;;16.70;81.97;99171.16;6218939;23;20051;-76
2022/11/18 13:42:48;;;;;;;0.00;0.00;;;;;;;16.21;86.89;99183.53;6193568;23;19997;-74
2022/11/18 13:45:14;;;;;;;0.00;0.00;;;;;;;17.39;86.75;99174.41;6192343;23;20032;-76
2022/11/18 13:48:02;;;;;;;0.00;0.00;;;;;;;19.54;82.94;99190.41;6226528;22;20015;-76
2022/11/18 13:50:38;;;;;;;0.00;0.00;;;;;;;18.12;72.67;99183.94;6225618;23;20046;-76
2022/11/18 13:53:07;;;;;;;1.27;0.98;;;;;;;16.64;81.75;99189.06;6225489;23;20000;-78
2022/11/18 13:55:47;;;;;;;0.15;0.15;;;;;;;17.55;80.61;99189.19;6227292;23;20011;-76
2022/11/18 13:58:18;;;;;;;0.00;0.00;;;;;;;17.26;81.50;99199.25;6225693;23;20027;-77
2022/11/18 14:00:56;;;;;;;0.00;0.00;;;;;;;17.58;86.37;99205.09;6228079;23;20411;-76
2022/11/18 14:03:34;;;;;;;0.00;0.00;;;;;;;16.57;84.52;99193.19;6251949;23;20000;-76
2022/11/18 14:06:05;;;;;;;5.95;0.55;;;;;;;15.73;85.87;99179.22;6200617;23;20008;-76
2022/11/18 14:08:35;;;;;;;0.00;0.00;;;;;;;17.14;92.87;99199.22;6201637;23;20091;-76
2022/11/18 14:11:02;;;;;;;0.30;0.30;;;;;;;19.85;80.45;99195.16;6225318;23;20038;-76
2022/11/18 14:13:33;;;;;;;0.00;0.00;;;;;;;20.03;87.01;99203.94;6250140;23;20067;-77
2022/11/18 14:16:01;;;;;;;0.00;0.00;;;;;;;21.76;72.46;99210.31;6225470;23;20008;-77
2022/11/18 14:18:31;;;;;;;0.00;0.00;;;;;;;21.83;75.98;99206.03;6225516;23;20505;-76
2022/11/18 14:20:57;;;;;;;0.00;0.00;;;;;;;23.07;77.33;99213.81;6250844;23;20019;-77
2022/11/18 14:23:43;;;;;;;0.00;0.00;;;;;;;22.81;71.74;99221.06;6225178;23;20884;-77
2022/11/18 14:26:09;;;;;;;0.00;0.00;;;;;;;20.19;82.03;99225.31;6224203;23;20042;-77
2022/11/18 14:28:36;;;;;;;0.00;0.00;;;;;;;20.13;84.95;99221.19;6215543;23;20099;-77
2022/11/18 14:31:11;;;;;;;0.00;0.00;;;;;;;21.47;88.61;99224.88;6223772;23;20026;-76
2022/11/18 14:33:40;;;;;;;0.00;0.00;;;;;;;22.94;82.99;99226.38;6224326;23;20051;-75